sensor_id;sensor_type;location;lat;lon;timestamp;temperature;humidity
61207;DHT22;47070;49.212;8.084;2023-02-08T00:02:16;3.10;97.30
61207;DHT22;47070;49.212;8.084;2023-02-08T00:06:16;3.00;97.00
61207;DHT22;47070;49.212;8.084;2023-02-08T00:10:17;2.90;98.00
61207;DHT22;47070;49.212;8.084;2023-02-08T00:14:17;3.00;97.70
61207;DHT22;47070;49.212;8.084;2023-02-08T00:18:18;3.70;99.60
61207;DHT22;47070;49.212;8.084;2023-02-08T00:22:19;3.60;98.40
61207;DHT22;47070;49.212;8.084;2023-02-08T00:26:19;4.00;98.70
61207;DHT22;47070;49.212;8.084;2023-02-08T00:30:20;4.10;99.70
61207;DHT22;47070;49.212;8.084;2023-02-08T00:34:20;3.90;99.90
61207;DHT22;47070;49.212;8.084;2023-02-08T00:38:20;4.40;99.90
61207;DHT22;47070;49.212;8.084;2023-02-08T00:42:21;4.30;99.90
61207;DHT22;47070;49.212;8.084;2023-02-08T00:46:22;4.20;98.90
61207;DHT22;47070;49.212;8.084;2023-02-08T00:50:22;4.10;98.90
61207;DHT22;47070;49.212;8.084;2023-02-08T00:54:23;3.80;96.70
61207;DHT22;47070;49.212;8.084;2023-02-08T00:58:23;3.50;98.90
61207;DHT22;47070;49.212;8.084;2023-02-08T01:02:24;3.40;98.30
61207;DHT22;47070;49.212;8.084;2023-02-08T01:06:24;2.90;97.30
61207;DHT22;47070;49.212;8.084;2023-02-08T01:10:24;2.90;98.10
61207;DHT22;47070;49.212;8.084;2023-02-08T01:14:25;2.80;97.60
61207;DHT22;47070;49.212;8.084;2023-02-08T01:18:26;2.60;98.20
61207;DHT22;47070;49.212;8.084;2023-02-08T01:22:27;2.30;98.40
61207;DHT22;47070;49.212;8.084;2023-02-08T01:26:28;2.40;97.80
61207;DHT22;47070;49.212;8.084;2023-02-08T01:30:28;2.30;98.20
61207;DHT22;47070;49.212;8.084;2023-02-08T01:34:28;2.40;98.30
61207;DHT22;47070;49.212;8.084;2023-02-08T01:38:29;2.30;98.20
61207;DHT22;47070;49.212;8.084;2023-02-08T01:42:30;2.30;98.40
61207;DHT22;47070;49.212;8.084;2023-02-08T01:46:31;2.20;98.30
61207;DHT22;47070;49.212;8.084;2023-02-08T01:50:33;2.30;98.30
61207;DHT22;47070;49.212;8.084;2023-02-08T01:54:37;2.20;98.10
61207;DHT22;47070;49.212;8.084;2023-02-08T01:58:41;2.00;98.20
61207;DHT22;47070;49.212;8.084;2023-02-08T02:02:44;2.10;98.80
61207;DHT22;47070;49.212;8.084;2023-02-08T02:06:45;2.20;98.80
61207;DHT22;47070;49.212;8.084;2023-02-08T02:10:47;2.20;97.90
61207;DHT22;47070;49.212;8.084;2023-02-08T02:14:48;2.40;98.70
61207;DHT22;47070;49.212;8.084;2023-02-08T02:18:48;2.20;97.70
61207;DHT22;47070;49.212;8.084;2023-02-08T02:22:56;2.10;97.90
61207;DHT22;47070;49.212;8.084;2023-02-08T02:27:11;2.40;98.10
61207;DHT22;47070;49.212;8.084;2023-02-08T02:44:01;2.60;96.90
61207;DHT22;47070;49.212;8.084;2023-02-08T02:48:05;2.20;97.20
61207;DHT22;47070;49.212;8.084;2023-02-08T02:52:09;1.90;97.60
61207;DHT22;47070;49.212;8.084;2023-02-08T02:56:11;1.70;98.30
61207;DHT22;47070;49.212;8.084;2023-02-08T03:00:16;1.60;99.00
61207;DHT22;47070;49.212;8.084;2023-02-08T03:04:45;1.60;98.70
61207;DHT22;47070;49.212;8.084;2023-02-08T03:08:59;1.50;98.50
61207;DHT22;47070;49.212;8.084;2023-02-08T03:25:33;1.30;98.90
61207;DHT22;47070;49.212;8.084;2023-02-08T03:29:47;1.40;98.60
61207;DHT22;47070;49.212;8.084;2023-02-08T03:33:52;1.20;98.90
61207;DHT22;47070;49.212;8.084;2023-02-08T03:38:00;1.10;99.00
61207;DHT22;47070;49.212;8.084;2023-02-08T03:42:03;1.10;98.80
61207;DHT22;47070;49.212;8.084;2023-02-08T03:46:10;0.90;99.00
61207;DHT22;47070;49.212;8.084;2023-02-08T03:50:13;0.90;99.40
61207;DHT22;47070;49.212;8.084;2023-02-08T03:54:17;0.80;99.40
61207;DHT22;47070;49.212;8.084;2023-02-08T03:58:22;0.70;99.90
61207;DHT22;47070;49.212;8.084;2023-02-08T04:02:25;0.80;99.80
61207;DHT22;47070;49.212;8.084;2023-02-08T04:06:26;1.10;99.90
61207;DHT22;47070;49.212;8.084;2023-02-08T04:10:27;0.90;99.50
61207;DHT22;47070;49.212;8.084;2023-02-08T04:14:27;0.70;99.90
61207;DHT22;47070;49.212;8.084;2023-02-08T04:18:27;0.60;99.90
61207;DHT22;47070;49.212;8.084;2023-02-08T04:22:28;0.50;99.90
61207;DHT22;47070;49.212;8.084;2023-02-08T04:26:28;0.40;99.90
61207;DHT22;47070;49.212;8.084;2023-02-08T04:30:29;0.40;99.90
61207;DHT22;47070;49.212;8.084;2023-02-08T04:34:29;0.30;99.90
61207;DHT22;47070;49.212;8.084;2023-02-08T04:38:30;0.50;99.90
61207;DHT22;47070;49.212;8.084;2023-02-08T04:42:30;0.60;99.90
61207;DHT22;47070;49.212;8.084;2023-02-08T04:46:31;0.50;99.90
61207;DHT22;47070;49.212;8.084;2023-02-08T04:50:31;0.80;99.90
61207;DHT22;47070;49.212;8.084;2023-02-08T04:54:32;0.20;99.90
61207;DHT22;47070;49.212;8.084;2023-02-08T04:58:33;0.50;99.90
61207;DHT22;47070;49.212;8.084;2023-02-08T05:02:34;0.60;99.90
61207;DHT22;47070;49.212;8.084;2023-02-08T05:06:35;0.90;99.80
61207;DHT22;47070;49.212;8.084;2023-02-08T05:10:35;2.40;99.90
61207;DHT22;47070;49.212;8.084;2023-02-08T05:14:35;1.90;99.90
61207;DHT22;47070;49.212;8.084;2023-02-08T05:18:36;1.60;99.80
61207;DHT22;47070;49.212;8.084;2023-02-08T05:22:36;1.00;99.90
61207;DHT22;47070;49.212;8.084;2023-02-08T05:26:37;0.90;99.90
61207;DHT22;47070;49.212;8.084;2023-02-08T05:30:38;0.90;99.90
61207;DHT22;47070;49.212;8.084;2023-02-08T05:34:39;1.00;99.90
61207;DHT22;47070;49.212;8.084;2023-02-08T05:38:39;1.20;99.90
61207;DHT22;47070;49.212;8.084;2023-02-08T05:42:39;1.60;99.90
61207;DHT22;47070;49.212;8.084;2023-02-08T05:46:41;1.90;99.90
61207;DHT22;47070;49.212;8.084;2023-02-08T05:50:42;2.10;99.20
61207;DHT22;47070;49.212;8.084;2023-02-08T05:54:42;1.60;99.10
61207;DHT22;47070;49.212;8.084;2023-02-08T05:58:42;1.60;98.30
61207;DHT22;47070;49.212;8.084;2023-02-08T06:02:43;1.50;98.80
61207;DHT22;47070;49.212;8.084;2023-02-08T06:06:43;1.30;98.90
61207;DHT22;47070;49.212;8.084;2023-02-08T06:10:46;1.30;98.90
61207;DHT22;47070;49.212;8.084;2023-02-08T06:14:47;1.30;99.00
61207;DHT22;47070;49.212;8.084;2023-02-08T06:18:48;1.20;98.70
61207;DHT22;47070;49.212;8.084;2023-02-08T06:22:48;1.20;99.90
61207;DHT22;47070;49.212;8.084;2023-02-08T06:26:48;1.20;98.70
61207;DHT22;47070;49.212;8.084;2023-02-08T06:30:49;1.30;98.80
61207;DHT22;47070;49.212;8.084;2023-02-08T06:34:50;1.20;99.00
61207;DHT22;47070;49.212;8.084;2023-02-08T06:38:50;1.50;99.90
61207;DHT22;47070;49.212;8.084;2023-02-08T06:42:51;1.60;99.10
61207;DHT22;47070;49.212;8.084;2023-02-08T06:46:51;1.80;99.90
61207;DHT22;47070;49.212;8.084;2023-02-08T06:50:52;1.80;98.60
61207;DHT22;47070;49.212;8.084;2023-02-08T06:54:53;1.70;98.00
61207;DHT22;47070;49.212;8.084;2023-02-08T06:58:54;1.60;98.10
61207;DHT22;47070;49.212;8.084;2023-02-08T07:02:55;1.60;98.50
61207;DHT22;47070;49.212;8.084;2023-02-08T07:06:55;1.50;98.00
61207;DHT22;47070;49.212;8.084;2023-02-08T07:10:56;1.50;99.00
61207;DHT22;47070;49.212;8.084;2023-02-08T07:14:56;2.10;99.50
61207;DHT22;47070;49.212;8.084;2023-02-08T07:18:56;1.70;98.80
61207;DHT22;47070;49.212;8.084;2023-02-08T07:22:57;2.70;99.90
61207;DHT22;47070;49.212;8.084;2023-02-08T07:26:58;2.40;99.40
61207;DHT22;47070;49.212;8.084;2023-02-08T07:30:59;2.90;99.90
61207;DHT22;47070;49.212;8.084;2023-02-08T07:34:59;2.70;98.00
61207;DHT22;47070;49.212;8.084;2023-02-08T07:39:00;5.50;99.90
61207;DHT22;47070;49.212;8.084;2023-02-08T07:43:00;4.30;99.90
61207;DHT22;47070;49.212;8.084;2023-02-08T07:47:00;3.30;98.40
61207;DHT22;47070;49.212;8.084;2023-02-08T07:51:01;3.40;99.90
61207;DHT22;47070;49.212;8.084;2023-02-08T07:55:01;3.80;98.90
61207;DHT22;47070;49.212;8.084;2023-02-08T07:59:02;3.40;98.60
61207;DHT22;47070;49.212;8.084;2023-02-08T08:03:02;3.30;99.20
61207;DHT22;47070;49.212;8.084;2023-02-08T08:07:03;3.60;99.90
61207;DHT22;47070;49.212;8.084;2023-02-08T08:11:03;5.10;99.90
61207;DHT22;47070;49.212;8.084;2023-02-08T08:15:04;4.60;98.30
61207;DHT22;47070;49.212;8.084;2023-02-08T08:19:04;4.10;99.90
61207;DHT22;47070;49.212;8.084;2023-02-08T08:23:05;3.60;98.00
61207;DHT22;47070;49.212;8.084;2023-02-08T08:27:05;3.50;97.80
61207;DHT22;47070;49.212;8.084;2023-02-08T08:31:10;4.10;97.70
61207;DHT22;47070;49.212;8.084;2023-02-08T08:35:10;4.50;98.40
61207;DHT22;47070;49.212;8.084;2023-02-08T08:39:11;5.00;99.90
61207;DHT22;47070;49.212;8.084;2023-02-08T08:43:11;4.70;99.30
61207;DHT22;47070;49.212;8.084;2023-02-08T08:47:12;4.70;98.70
61207;DHT22;47070;49.212;8.084;2023-02-08T08:51:12;4.80;99.00
61207;DHT22;47070;49.212;8.084;2023-02-08T08:55:13;6.10;99.90
61207;DHT22;47070;49.212;8.084;2023-02-08T08:59:13;6.70;99.90
61207;DHT22;47070;49.212;8.084;2023-02-08T09:03:14;9.00;99.90
61207;DHT22;47070;49.212;8.084;2023-02-08T09:07:14;7.10;97.90
61207;DHT22;47070;49.212;8.084;2023-02-08T09:11:15;7.40;99.90
61207;DHT22;47070;49.212;8.084;2023-02-08T09:15:15;6.10;94.80
61207;DHT22;47070;49.212;8.084;2023-02-08T09:19:16;7.00;99.90
61207;DHT22;47070;49.212;8.084;2023-02-08T09:23:16;6.20;99.90
61207;DHT22;47070;49.212;8.084;2023-02-08T09:27:17;7.50;99.90
61207;DHT22;47070;49.212;8.084;2023-02-08T09:31:22;6.80;95.60
61207;DHT22;47070;49.212;8.084;2023-02-08T09:35:23;8.40;99.90
61207;DHT22;47070;49.212;8.084;2023-02-08T09:39:24;7.60;92.10
61207;DHT22;47070;49.212;8.084;2023-02-08T09:47:35;6.60;98.80
61207;DHT22;47070;49.212;8.084;2023-02-08T09:51:46;7.30;97.90
61207;DHT22;47070;49.212;8.084;2023-02-08T09:55:51;8.90;99.90
61207;DHT22;47070;49.212;8.084;2023-02-08T09:59:57;7.60;94.60
61207;DHT22;47070;49.212;8.084;2023-02-08T10:08:01;8.30;98.20
61207;DHT22;47070;49.212;8.084;2023-02-08T10:16:09;7.20;95.70
61207;DHT22;47070;49.212;8.084;2023-02-08T10:20:33;6.20;91.60
61207;DHT22;47070;49.212;8.084;2023-02-08T10:24:39;6.60;95.30
61207;DHT22;47070;49.212;8.084;2023-02-08T10:28:45;7.30;95.40
61207;DHT22;47070;49.212;8.084;2023-02-08T10:32:59;8.00;98.20
61207;DHT22;47070;49.212;8.084;2023-02-08T10:37:03;7.90;97.00
61207;DHT22;47070;49.212;8.084;2023-02-08T10:41:09;8.30;97.90
61207;DHT22;47070;49.212;8.084;2023-02-08T10:45:30;8.00;95.40
61207;DHT22;47070;49.212;8.084;2023-02-08T10:49:39;8.00;92.90
61207;DHT22;47070;49.212;8.084;2023-02-08T10:53:41;7.60;93.30
61207;DHT22;47070;49.212;8.084;2023-02-08T10:57:42;8.00;92.50
61207;DHT22;47070;49.212;8.084;2023-02-08T11:01:43;6.80;93.00
61207;DHT22;47070;49.212;8.084;2023-02-08T11:05:44;7.50;97.20
61207;DHT22;47070;49.212;8.084;2023-02-08T11:09:45;8.10;99.90
61207;DHT22;47070;49.212;8.084;2023-02-08T11:13:46;7.90;96.00
61207;DHT22;47070;49.212;8.084;2023-02-08T11:17:54;8.00;99.90
61207;DHT22;47070;49.212;8.084;2023-02-08T11:21:56;7.40;94.90
61207;DHT22;47070;49.212;8.084;2023-02-08T11:30:19;8.70;99.90
61207;DHT22;47070;49.212;8.084;2023-02-08T11:34:24;9.20;97.20
61207;DHT22;47070;49.212;8.084;2023-02-08T11:38:25;8.10;95.60
61207;DHT22;47070;49.212;8.084;2023-02-08T11:42:35;8.50;97.30
61207;DHT22;47070;49.212;8.084;2023-02-08T11:46:36;10.00;99.90
61207;DHT22;47070;49.212;8.084;2023-02-08T11:50:38;10.40;99.90
61207;DHT22;47070;49.212;8.084;2023-02-08T11:54:40;9.50;90.50
61207;DHT22;47070;49.212;8.084;2023-02-08T11:58:40;9.50;94.30
61207;DHT22;47070;49.212;8.084;2023-02-08T12:02:41;9.80;95.30
61207;DHT22;47070;49.212;8.084;2023-02-08T12:15:00;10.60;97.50
61207;DHT22;47070;49.212;8.084;2023-02-08T12:23:30;11.00;99.90
61207;DHT22;47070;49.212;8.084;2023-02-08T12:27:42;11.20;90.10
61207;DHT22;47070;49.212;8.084;2023-02-08T12:40:08;11.80;94.00
61207;DHT22;47070;49.212;8.084;2023-02-08T12:52:56;13.50;87.80
61207;DHT22;47070;49.212;8.084;2023-02-08T12:56:59;12.10;93.20
61207;DHT22;47070;49.212;8.084;2023-02-08T13:01:06;12.10;96.70
61207;DHT22;47070;49.212;8.084;2023-02-08T13:05:10;12.80;90.00
61207;DHT22;47070;49.212;8.084;2023-02-08T13:09:21;12.50;89.70
61207;DHT22;47070;49.212;8.084;2023-02-08T13:13:27;12.60;79.70
61207;DHT22;47070;49.212;8.084;2023-02-08T13:17:32;12.60;80.80
61207;DHT22;47070;49.212;8.084;2023-02-08T13:21:34;13.60;83.80
61207;DHT22;47070;49.212;8.084;2023-02-08T13:25:40;13.50;87.90
61207;DHT22;47070;49.212;8.084;2023-02-08T13:29:45;13.90;94.50
61207;DHT22;47070;49.212;8.084;2023-02-08T13:33:57;13.40;92.00
61207;DHT22;47070;49.212;8.084;2023-02-08T13:38:32;13.50;77.90
61207;DHT22;47070;49.212;8.084;2023-02-08T13:42:33;13.70;82.10
61207;DHT22;47070;49.212;8.084;2023-02-08T13:46:43;13.70;89.80
61207;DHT22;47070;49.212;8.084;2023-02-08T13:50:47;14.00;79.90
61207;DHT22;47070;49.212;8.084;2023-02-08T13:54:52;14.70;95.10
61207;DHT22;47070;49.212;8.084;2023-02-08T14:03:40;14.70;88.50
61207;DHT22;47070;49.212;8.084;2023-02-08T14:07:42;14.10;72.80
61207;DHT22;47070;49.212;8.084;2023-02-08T14:15:44;13.50;79.00
61207;DHT22;47070;49.212;8.084;2023-02-08T14:19:45;14.20;92.40
61207;DHT22;47070;49.212;8.084;2023-02-08T14:23:58;15.30;88.00
61207;DHT22;47070;49.212;8.084;2023-02-08T14:27:59;14.50;76.40
61207;DHT22;47070;49.212;8.084;2023-02-08T14:32:01;13.70;79.70
61207;DHT22;47070;49.212;8.084;2023-02-08T14:36:05;13.40;75.70
61207;DHT22;47070;49.212;8.084;2023-02-08T14:48:41;11.10;84.30
61207;DHT22;47070;49.212;8.084;2023-02-08T14:57:03;10.90;81.10
61207;DHT22;47070;49.212;8.084;2023-02-08T15:01:06;10.70;89.70
61207;DHT22;47070;49.212;8.084;2023-02-08T15:05:18;10.00;89.90
61207;DHT22;47070;49.212;8.084;2023-02-08T15:09:23;9.50;83.10
61207;DHT22;47070;49.212;8.084;2023-02-08T15:13:24;9.20;92.70
61207;DHT22;47070;49.212;8.084;2023-02-08T15:17:32;9.50;91.20
61207;DHT22;47070;49.212;8.084;2023-02-08T15:21:33;9.10;88.80
61207;DHT22;47070;49.212;8.084;2023-02-08T15:25:36;8.50;86.80
61207;DHT22;47070;49.212;8.084;2023-02-08T15:29:39;8.50;88.00
61207;DHT22;47070;49.212;8.084;2023-02-08T15:33:40;8.20;87.70
61207;DHT22;47070;49.212;8.084;2023-02-08T15:37:44;7.90;88.10
61207;DHT22;47070;49.212;8.084;2023-02-08T15:41:46;8.70;89.50
61207;DHT22;47070;49.212;8.084;2023-02-08T15:45:54;8.70;86.50
61207;DHT22;47070;49.212;8.084;2023-02-08T15:49:55;8.20;87.70
61207;DHT22;47070;49.212;8.084;2023-02-08T15:53:55;7.70;88.30
61207;DHT22;47070;49.212;8.084;2023-02-08T15:58:00;8.30;93.40
61207;DHT22;47070;49.212;8.084;2023-02-08T16:02:15;8.80;97.70
61207;DHT22;47070;49.212;8.084;2023-02-08T16:06:19;8.00;86.30
61207;DHT22;47070;49.212;8.084;2023-02-08T16:14:26;7.10;88.30
61207;DHT22;47070;49.212;8.084;2023-02-08T16:22:33;6.70;90.10
61207;DHT22;47070;49.212;8.084;2023-02-08T16:26:34;6.50;90.50
61207;DHT22;47070;49.212;8.084;2023-02-08T16:30:36;6.30;90.80
61207;DHT22;47070;49.212;8.084;2023-02-08T16:34:36;5.80;91.70
61207;DHT22;47070;49.212;8.084;2023-02-08T16:38:37;5.70;91.50
61207;DHT22;47070;49.212;8.084;2023-02-08T16:42:37;5.50;92.10
61207;DHT22;47070;49.212;8.084;2023-02-08T16:46:43;5.50;92.90
61207;DHT22;47070;49.212;8.084;2023-02-08T16:50:43;5.20;92.90
61207;DHT22;47070;49.212;8.084;2023-02-08T16:54:44;5.10;92.90
61207;DHT22;47070;49.212;8.084;2023-02-08T16:58:44;4.80;93.30
61207;DHT22;47070;49.212;8.084;2023-02-08T17:02:45;4.80;93.20
61207;DHT22;47070;49.212;8.084;2023-02-08T17:06:45;4.60;93.60
61207;DHT22;47070;49.212;8.084;2023-02-08T17:10:46;4.90;93.10
61207;DHT22;47070;49.212;8.084;2023-02-08T17:14:50;5.10;93.00
61207;DHT22;47070;49.212;8.084;2023-02-08T17:18:51;5.00;93.10
61207;DHT22;47070;49.212;8.084;2023-02-08T17:22:52;4.70;93.10
61207;DHT22;47070;49.212;8.084;2023-02-08T17:26:53;4.70;93.40
61207;DHT22;47070;49.212;8.084;2023-02-08T17:30:53;4.30;94.00
61207;DHT22;47070;49.212;8.084;2023-02-08T17:34:54;4.20;93.90
61207;DHT22;47070;49.212;8.084;2023-02-08T17:38:55;4.40;94.50
61207;DHT22;47070;49.212;8.084;2023-02-08T17:42:56;4.60;94.00
61207;DHT22;47070;49.212;8.084;2023-02-08T17:46:56;4.70;93.80
61207;DHT22;47070;49.212;8.084;2023-02-08T17:50:56;4.50;93.50
61207;DHT22;47070;49.212;8.084;2023-02-08T17:54:57;4.30;93.70
61207;DHT22;47070;49.212;8.084;2023-02-08T17:58:57;4.30;94.30
61207;DHT22;47070;49.212;8.084;2023-02-08T18:03:00;4.10;93.90
61207;DHT22;47070;49.212;8.084;2023-02-08T18:07:00;4.30;94.20
61207;DHT22;47070;49.212;8.084;2023-02-08T18:11:03;4.00;94.40
61207;DHT22;47070;49.212;8.084;2023-02-08T18:15:04;3.80;94.30
61207;DHT22;47070;49.212;8.084;2023-02-08T18:19:05;3.70;94.50
61207;DHT22;47070;49.212;8.084;2023-02-08T18:23:05;3.60;95.00
61207;DHT22;47070;49.212;8.084;2023-02-08T18:27:06;3.40;95.60
61207;DHT22;47070;49.212;8.084;2023-02-08T18:31:08;3.50;95.70
61207;DHT22;47070;49.212;8.084;2023-02-08T18:35:08;3.50;95.90
61207;DHT22;47070;49.212;8.084;2023-02-08T18:39:10;3.60;96.00
61207;DHT22;47070;49.212;8.084;2023-02-08T18:43:12;3.70;96.00
61207;DHT22;47070;49.212;8.084;2023-02-08T18:47:12;3.70;95.70
61207;DHT22;47070;49.212;8.084;2023-02-08T18:51:13;3.70;95.70
61207;DHT22;47070;49.212;8.084;2023-02-08T18:55:15;3.80;95.70
61207;DHT22;47070;49.212;8.084;2023-02-08T18:59:16;3.90;95.20
61207;DHT22;47070;49.212;8.084;2023-02-08T19:03:17;4.00;96.20
61207;DHT22;47070;49.212;8.084;2023-02-08T19:07:17;4.00;95.50
61207;DHT22;47070;49.212;8.084;2023-02-08T19:11:22;4.70;98.30
61207;DHT22;47070;49.212;8.084;2023-02-08T19:15:22;4.30;94.30
61207;DHT22;47070;49.212;8.084;2023-02-08T19:19:23;4.00;95.50
61207;DHT22;47070;49.212;8.084;2023-02-08T19:23:24;3.70;95.00
61207;DHT22;47070;49.212;8.084;2023-02-08T19:27:24;3.50;95.70
61207;DHT22;47070;49.212;8.084;2023-02-08T19:31:25;3.50;95.60
61207;DHT22;47070;49.212;8.084;2023-02-08T19:35:26;3.40;95.90
61207;DHT22;47070;49.212;8.084;2023-02-08T19:39:26;3.20;96.00
61207;DHT22;47070;49.212;8.084;2023-02-08T19:43:27;3.30;96.10
61207;DHT22;47070;49.212;8.084;2023-02-08T19:47:28;3.20;96.00
61207;DHT22;47070;49.212;8.084;2023-02-08T19:51:29;3.00;96.60
61207;DHT22;47070;49.212;8.084;2023-02-08T19:55:31;3.10;96.50
61207;DHT22;47070;49.212;8.084;2023-02-08T19:59:31;3.40;96.50
61207;DHT22;47070;49.212;8.084;2023-02-08T20:03:32;3.80;96.80
61207;DHT22;47070;49.212;8.084;2023-02-08T20:07:32;4.00;96.40
61207;DHT22;47070;49.212;8.084;2023-02-08T20:11:34;3.80;95.10
61207;DHT22;47070;49.212;8.084;2023-02-08T20:15:35;3.40;96.00
61207;DHT22;47070;49.212;8.084;2023-02-08T20:19:36;3.50;96.60
61207;DHT22;47070;49.212;8.084;2023-02-08T20:23:37;3.40;95.60
61207;DHT22;47070;49.212;8.084;2023-02-08T20:27:37;3.30;96.10
61207;DHT22;47070;49.212;8.084;2023-02-08T20:31:38;3.90;96.50
61207;DHT22;47070;49.212;8.084;2023-02-08T20:35:40;3.60;95.50
61207;DHT22;47070;49.212;8.084;2023-02-08T20:39:40;3.50;95.80
61207;DHT22;47070;49.212;8.084;2023-02-08T20:43:41;3.30;95.90
61207;DHT22;47070;49.212;8.084;2023-02-08T20:47:42;3.00;95.80
61207;DHT22;47070;49.212;8.084;2023-02-08T20:51:45;2.90;96.20
61207;DHT22;47070;49.212;8.084;2023-02-08T20:55:45;2.90;96.50
61207;DHT22;47070;49.212;8.084;2023-02-08T20:59:48;3.00;98.20
61207;DHT22;47070;49.212;8.084;2023-02-08T21:03:48;3.40;96.90
61207;DHT22;47070;49.212;8.084;2023-02-08T21:07:49;3.40;95.90
61207;DHT22;47070;49.212;8.084;2023-02-08T21:11:50;3.50;95.90
61207;DHT22;47070;49.212;8.084;2023-02-08T21:15:50;3.60;95.20
61207;DHT22;47070;49.212;8.084;2023-02-08T21:19:51;3.60;95.70
61207;DHT22;47070;49.212;8.084;2023-02-08T21:23:51;3.70;95.50
61207;DHT22;47070;49.212;8.084;2023-02-08T21:27:52;4.20;96.40
61207;DHT22;47070;49.212;8.084;2023-02-08T21:31:52;3.60;95.10
61207;DHT22;47070;49.212;8.084;2023-02-08T21:35:55;3.10;95.80
61207;DHT22;47070;49.212;8.084;2023-02-08T21:39:55;2.90;96.40
61207;DHT22;47070;49.212;8.084;2023-02-08T21:43:57;2.70;96.20
61207;DHT22;47070;49.212;8.084;2023-02-08T21:47:57;2.70;96.40
61207;DHT22;47070;49.212;8.084;2023-02-08T21:51:59;2.60;96.60
61207;DHT22;47070;49.212;8.084;2023-02-08T21:56:18;2.80;97.20
61207;DHT22;47070;49.212;8.084;2023-02-08T22:00:18;2.90;98.00
61207;DHT22;47070;49.212;8.084;2023-02-08T22:04:19;2.90;96.90
61207;DHT22;47070;49.212;8.084;2023-02-08T22:08:19;2.60;96.40
61207;DHT22;47070;49.212;8.084;2023-02-08T22:12:20;2.50;96.60
61207;DHT22;47070;49.212;8.084;2023-02-08T22:16:21;3.30;97.10
61207;DHT22;47070;49.212;8.084;2023-02-08T22:20:22;3.00;96.10
61207;DHT22;47070;49.212;8.084;2023-02-08T22:24:22;2.80;96.80
61207;DHT22;47070;49.212;8.084;2023-02-08T22:28:23;2.50;96.70
61207;DHT22;47070;49.212;8.084;2023-02-08T22:32:23;2.40;96.70
61207;DHT22;47070;49.212;8.084;2023-02-08T22:36:23;2.30;96.80
61207;DHT22;47070;49.212;8.084;2023-02-08T22:40:24;2.40;97.00
61207;DHT22;47070;49.212;8.084;2023-02-08T22:44:24;2.30;97.20
61207;DHT22;47070;49.212;8.084;2023-02-08T22:48:25;2.30;97.00
61207;DHT22;47070;49.212;8.084;2023-02-08T22:52:25;2.20;97.00
61207;DHT22;47070;49.212;8.084;2023-02-08T22:56:26;2.20;97.40
61207;DHT22;47070;49.212;8.084;2023-02-08T23:00:27;2.00;97.80
61207;DHT22;47070;49.212;8.084;2023-02-08T23:04:27;2.40;97.80
61207;DHT22;47070;49.212;8.084;2023-02-08T23:08:28;2.30;96.90
61207;DHT22;47070;49.212;8.084;2023-02-08T23:12:28;2.40;97.30
61207;DHT22;47070;49.212;8.084;2023-02-08T23:16:29;2.40;97.20
61207;DHT22;47070;49.212;8.084;2023-02-08T23:20:29;2.80;97.70
61207;DHT22;47070;49.212;8.084;2023-02-08T23:24:30;3.00;98.60
61207;DHT22;47070;49.212;8.084;2023-02-08T23:28:30;3.50;97.30
61207;DHT22;47070;49.212;8.084;2023-02-08T23:32:31;3.80;96.10
61207;DHT22;47070;49.212;8.084;2023-02-08T23:36:31;3.60;95.90
61207;DHT22;47070;49.212;8.084;2023-02-08T23:40:32;2.90;95.60
61207;DHT22;47070;49.212;8.084;2023-02-08T23:44:32;2.60;96.50
61207;DHT22;47070;49.212;8.084;2023-02-08T23:48:33;2.50;98.90
61207;DHT22;47070;49.212;8.084;2023-02-08T23:52:34;2.20;96.60
61207;DHT22;47070;49.212;8.084;2023-02-08T23:56:35;2.00;96.90
